sensor_id;sensor_type;location;lat;lon;timestamp;P1;durP1;ratioP1;P2;durP2;ratioP2
62709;SDS011;48770;51.624;5.886;2023-08-07T00:02:20;1.83;;;0.47;;
62709;SDS011;48770;51.624;5.886;2023-08-07T00:04:45;1.80;;;0.63;;
62709;SDS011;48770;51.624;5.886;2023-08-07T00:07:11;1.42;;;0.55;;
62709;SDS011;48770;51.624;5.886;2023-08-07T00:09:36;2.17;;;0.70;;
62709;SDS011;48770;51.624;5.886;2023-08-07T00:12:01;2.35;;;0.60;;
62709;SDS011;48770;51.624;5.886;2023-08-07T00:14:27;1.88;;;0.70;;
62709;SDS011;48770;51.624;5.886;2023-08-07T00:16:52;1.30;;;0.45;;
62709;SDS011;48770;51.624;5.886;2023-08-07T00:19:18;1.10;;;0.40;;
62709;SDS011;48770;51.624;5.886;2023-08-07T00:21:43;1.45;;;0.63;;
62709;SDS011;48770;51.624;5.886;2023-08-07T00:24:08;1.73;;;0.60;;
62709;SDS011;48770;51.624;5.886;2023-08-07T00:26:34;1.30;;;0.43;;
62709;SDS011;48770;51.624;5.886;2023-08-07T00:28:59;1.65;;;0.82;;
62709;SDS011;48770;51.624;5.886;2023-08-07T00:31:24;2.63;;;0.95;;
62709;SDS011;48770;51.624;5.886;2023-08-07T00:33:50;1.73;;;0.40;;
62709;SDS011;48770;51.624;5.886;2023-08-07T00:36:18;1.67;;;0.52;;
62709;SDS011;48770;51.624;5.886;2023-08-07T00:38:44;1.33;;;0.50;;
62709;SDS011;48770;51.624;5.886;2023-08-07T00:41:09;1.90;;;0.70;;
62709;SDS011;48770;51.624;5.886;2023-08-07T00:43:35;2.28;;;0.50;;
62709;SDS011;48770;51.624;5.886;2023-08-07T00:46:00;1.30;;;0.60;;
62709;SDS011;48770;51.624;5.886;2023-08-07T00:48:26;3.17;;;0.47;;
62709;SDS011;48770;51.624;5.886;2023-08-07T00:50:51;1.63;;;0.70;;
62709;SDS011;48770;51.624;5.886;2023-08-07T00:53:17;2.20;;;0.30;;
62709;SDS011;48770;51.624;5.886;2023-08-07T00:55:42;1.48;;;0.60;;
62709;SDS011;48770;51.624;5.886;2023-08-07T00:58:08;1.42;;;0.40;;
62709;SDS011;48770;51.624;5.886;2023-08-07T01:00:33;4.95;;;0.40;;
62709;SDS011;48770;51.624;5.886;2023-08-07T01:02:59;0.77;;;0.30;;
62709;SDS011;48770;51.624;5.886;2023-08-07T01:05:25;1.08;;;0.50;;
62709;SDS011;48770;51.624;5.886;2023-08-07T01:07:51;1.38;;;0.47;;
62709;SDS011;48770;51.624;5.886;2023-08-07T01:10:20;1.08;;;0.38;;
62709;SDS011;48770;51.624;5.886;2023-08-07T01:12:57;1.08;;;0.40;;
62709;SDS011;48770;51.624;5.886;2023-08-07T01:15:30;1.70;;;0.40;;
62709;SDS011;48770;51.624;5.886;2023-08-07T01:17:57;2.92;;;0.70;;
62709;SDS011;48770;51.624;5.886;2023-08-07T01:20:24;1.38;;;0.47;;
62709;SDS011;48770;51.624;5.886;2023-08-07T01:22:49;2.05;;;0.47;;
62709;SDS011;48770;51.624;5.886;2023-08-07T01:25:14;1.48;;;0.40;;
62709;SDS011;48770;51.624;5.886;2023-08-07T01:30:35;1.05;;;0.50;;
62709;SDS011;48770;51.624;5.886;2023-08-07T01:35:56;0.70;;;0.30;;
62709;SDS011;48770;51.624;5.886;2023-08-07T01:38:24;2.17;;;0.47;;
62709;SDS011;48770;51.624;5.886;2023-08-07T01:40:52;1.65;;;0.32;;
62709;SDS011;48770;51.624;5.886;2023-08-07T01:43:18;0.75;;;0.38;;
62709;SDS011;48770;51.624;5.886;2023-08-07T01:45:46;0.55;;;0.35;;
62709;SDS011;48770;51.624;5.886;2023-08-07T01:48:12;0.90;;;0.40;;
62709;SDS011;48770;51.624;5.886;2023-08-07T01:50:37;1.80;;;0.50;;
62709;SDS011;48770;51.624;5.886;2023-08-07T01:53:04;0.95;;;0.30;;
62709;SDS011;48770;51.624;5.886;2023-08-07T01:55:29;0.95;;;0.30;;
62709;SDS011;48770;51.624;5.886;2023-08-07T01:57:55;0.68;;;0.35;;
62709;SDS011;48770;51.624;5.886;2023-08-07T02:00:20;0.97;;;0.30;;
62709;SDS011;48770;51.624;5.886;2023-08-07T02:02:45;0.98;;;0.40;;
62709;SDS011;48770;51.624;5.886;2023-08-07T02:05:11;0.80;;;0.40;;
62709;SDS011;48770;51.624;5.886;2023-08-07T02:07:37;1.63;;;0.50;;
62709;SDS011;48770;51.624;5.886;2023-08-07T02:10:02;1.10;;;0.40;;
62709;SDS011;48770;51.624;5.886;2023-08-07T02:12:28;0.98;;;0.20;;
62709;SDS011;48770;51.624;5.886;2023-08-07T02:14:57;0.55;;;0.30;;
62709;SDS011;48770;51.624;5.886;2023-08-07T02:17:22;0.68;;;0.30;;
62709;SDS011;48770;51.624;5.886;2023-08-07T02:19:48;0.52;;;0.22;;
62709;SDS011;48770;51.624;5.886;2023-08-07T02:22:13;0.30;;;0.13;;
62709;SDS011;48770;51.624;5.886;2023-08-07T02:24:38;1.65;;;0.40;;
62709;SDS011;48770;51.624;5.886;2023-08-07T02:27:03;0.67;;;0.23;;
62709;SDS011;48770;51.624;5.886;2023-08-07T02:29:29;1.50;;;0.57;;
62709;SDS011;48770;51.624;5.886;2023-08-07T02:31:55;1.00;;;0.40;;
62709;SDS011;48770;51.624;5.886;2023-08-07T02:34:20;1.13;;;0.30;;
62709;SDS011;48770;51.624;5.886;2023-08-07T02:36:45;0.70;;;0.30;;
62709;SDS011;48770;51.624;5.886;2023-08-07T02:39:11;0.90;;;0.25;;
62709;SDS011;48770;51.624;5.886;2023-08-07T02:41:38;0.73;;;0.32;;
62709;SDS011;48770;51.624;5.886;2023-08-07T02:44:03;1.15;;;0.32;;
62709;SDS011;48770;51.624;5.886;2023-08-07T02:46:29;1.05;;;0.40;;
62709;SDS011;48770;51.624;5.886;2023-08-07T02:48:54;0.63;;;0.30;;
62709;SDS011;48770;51.624;5.886;2023-08-07T02:51:19;0.80;;;0.20;;
62709;SDS011;48770;51.624;5.886;2023-08-07T02:53:45;0.68;;;0.32;;
62709;SDS011;48770;51.624;5.886;2023-08-07T02:56:10;1.03;;;0.40;;
62709;SDS011;48770;51.624;5.886;2023-08-07T02:58:35;0.68;;;0.22;;
62709;SDS011;48770;51.624;5.886;2023-08-07T03:01:04;0.95;;;0.40;;
62709;SDS011;48770;51.624;5.886;2023-08-07T03:03:31;0.60;;;0.35;;
62709;SDS011;48770;51.624;5.886;2023-08-07T03:05:56;0.93;;;0.30;;
62709;SDS011;48770;51.624;5.886;2023-08-07T03:08:21;0.45;;;0.20;;
62709;SDS011;48770;51.624;5.886;2023-08-07T03:10:52;1.00;;;0.30;;
62709;SDS011;48770;51.624;5.886;2023-08-07T03:13:20;1.92;;;0.40;;
62709;SDS011;48770;51.624;5.886;2023-08-07T03:15:45;1.00;;;0.30;;
62709;SDS011;48770;51.624;5.886;2023-08-07T03:18:11;1.08;;;0.50;;
62709;SDS011;48770;51.624;5.886;2023-08-07T03:20:36;1.47;;;0.30;;
62709;SDS011;48770;51.624;5.886;2023-08-07T03:23:02;0.63;;;0.30;;
62709;SDS011;48770;51.624;5.886;2023-08-07T03:25:27;0.70;;;0.33;;
62709;SDS011;48770;51.624;5.886;2023-08-07T03:27:52;1.20;;;0.40;;
62709;SDS011;48770;51.624;5.886;2023-08-07T03:30:18;0.98;;;0.40;;
62709;SDS011;48770;51.624;5.886;2023-08-07T03:32:43;0.40;;;0.20;;
62709;SDS011;48770;51.624;5.886;2023-08-07T03:35:08;0.40;;;0.20;;
62709;SDS011;48770;51.624;5.886;2023-08-07T03:37:34;0.33;;;0.20;;
62709;SDS011;48770;51.624;5.886;2023-08-07T03:39:59;1.20;;;0.40;;
62709;SDS011;48770;51.624;5.886;2023-08-07T03:42:24;0.83;;;0.30;;
62709;SDS011;48770;51.624;5.886;2023-08-07T03:44:49;1.43;;;0.33;;
62709;SDS011;48770;51.624;5.886;2023-08-07T03:47:15;0.85;;;0.40;;
62709;SDS011;48770;51.624;5.886;2023-08-07T03:49:40;0.63;;;0.27;;
62709;SDS011;48770;51.624;5.886;2023-08-07T03:52:05;0.20;;;0.20;;
62709;SDS011;48770;51.624;5.886;2023-08-07T03:54:31;0.65;;;0.30;;
62709;SDS011;48770;51.624;5.886;2023-08-07T03:56:56;0.57;;;0.30;;
62709;SDS011;48770;51.624;5.886;2023-08-07T03:59:21;0.77;;;0.30;;
62709;SDS011;48770;51.624;5.886;2023-08-07T04:01:47;0.50;;;0.30;;
62709;SDS011;48770;51.624;5.886;2023-08-07T04:04:12;0.60;;;0.30;;
62709;SDS011;48770;51.624;5.886;2023-08-07T04:06:37;0.57;;;0.20;;
62709;SDS011;48770;51.624;5.886;2023-08-07T04:09:03;0.50;;;0.30;;
62709;SDS011;48770;51.624;5.886;2023-08-07T04:11:28;0.75;;;0.30;;
62709;SDS011;48770;51.624;5.886;2023-08-07T04:13:54;0.68;;;0.25;;
62709;SDS011;48770;51.624;5.886;2023-08-07T04:16:19;0.50;;;0.20;;
62709;SDS011;48770;51.624;5.886;2023-08-07T04:18:45;0.87;;;0.30;;
62709;SDS011;48770;51.624;5.886;2023-08-07T04:21:10;0.87;;;0.43;;
62709;SDS011;48770;51.624;5.886;2023-08-07T04:23:35;0.40;;;0.30;;
62709;SDS011;48770;51.624;5.886;2023-08-07T04:26:00;0.70;;;0.28;;
62709;SDS011;48770;51.624;5.886;2023-08-07T04:28:27;0.55;;;0.25;;
62709;SDS011;48770;51.624;5.886;2023-08-07T04:30:53;0.52;;;0.22;;
62709;SDS011;48770;51.624;5.886;2023-08-07T04:33:21;0.70;;;0.40;;
62709;SDS011;48770;51.624;5.886;2023-08-07T04:35:46;1.80;;;0.68;;
62709;SDS011;48770;51.624;5.886;2023-08-07T04:38:13;0.47;;;0.30;;
62709;SDS011;48770;51.624;5.886;2023-08-07T04:40:43;0.20;;;0.20;;
62709;SDS011;48770;51.624;5.886;2023-08-07T04:43:09;0.80;;;0.20;;
62709;SDS011;48770;51.624;5.886;2023-08-07T04:45:34;0.63;;;0.20;;
62709;SDS011;48770;51.624;5.886;2023-08-07T04:47:59;0.70;;;0.30;;
62709;SDS011;48770;51.624;5.886;2023-08-07T04:50:25;0.50;;;0.20;;
62709;SDS011;48770;51.624;5.886;2023-08-07T04:52:51;1.13;;;0.43;;
62709;SDS011;48770;51.624;5.886;2023-08-07T04:55:16;0.70;;;0.30;;
62709;SDS011;48770;51.624;5.886;2023-08-07T04:57:41;0.50;;;0.30;;
62709;SDS011;48770;51.624;5.886;2023-08-07T05:00:07;0.82;;;0.30;;
62709;SDS011;48770;51.624;5.886;2023-08-07T05:02:33;0.85;;;0.30;;
62709;SDS011;48770;51.624;5.886;2023-08-07T05:04:58;0.30;;;0.20;;
62709;SDS011;48770;51.624;5.886;2023-08-07T05:07:23;0.93;;;0.43;;
62709;SDS011;48770;51.624;5.886;2023-08-07T05:09:49;1.15;;;0.35;;
62709;SDS011;48770;51.624;5.886;2023-08-07T05:12:15;0.30;;;0.17;;
62709;SDS011;48770;51.624;5.886;2023-08-07T05:14:41;0.77;;;0.40;;
62709;SDS011;48770;51.624;5.886;2023-08-07T05:17:06;0.95;;;0.28;;
62709;SDS011;48770;51.624;5.886;2023-08-07T05:19:31;0.47;;;0.25;;
62709;SDS011;48770;51.624;5.886;2023-08-07T05:21:57;0.98;;;0.40;;
62709;SDS011;48770;51.624;5.886;2023-08-07T05:24:22;0.80;;;0.30;;
62709;SDS011;48770;51.624;5.886;2023-08-07T05:26:47;0.47;;;0.23;;
62709;SDS011;48770;51.624;5.886;2023-08-07T05:29:12;1.27;;;0.30;;
62709;SDS011;48770;51.624;5.886;2023-08-07T05:31:38;0.53;;;0.30;;
62709;SDS011;48770;51.624;5.886;2023-08-07T05:34:03;0.40;;;0.20;;
62709;SDS011;48770;51.624;5.886;2023-08-07T05:36:28;0.70;;;0.30;;
62709;SDS011;48770;51.624;5.886;2023-08-07T05:38:56;0.30;;;0.20;;
62709;SDS011;48770;51.624;5.886;2023-08-07T05:41:21;0.75;;;0.30;;
62709;SDS011;48770;51.624;5.886;2023-08-07T05:43:46;0.50;;;0.20;;
62709;SDS011;48770;51.624;5.886;2023-08-07T05:46:12;1.23;;;0.30;;
62709;SDS011;48770;51.624;5.886;2023-08-07T05:48:37;1.08;;;0.40;;
62709;SDS011;48770;51.624;5.886;2023-08-07T05:51:02;0.63;;;0.32;;
62709;SDS011;48770;51.624;5.886;2023-08-07T05:53:28;0.65;;;0.40;;
62709;SDS011;48770;51.624;5.886;2023-08-07T05:55:53;0.52;;;0.20;;
62709;SDS011;48770;51.624;5.886;2023-08-07T05:58:19;0.68;;;0.40;;
62709;SDS011;48770;51.624;5.886;2023-08-07T06:00:45;0.85;;;0.30;;
62709;SDS011;48770;51.624;5.886;2023-08-07T06:03:11;0.28;;;0.28;;
62709;SDS011;48770;51.624;5.886;2023-08-07T06:05:36;1.02;;;0.40;;
62709;SDS011;48770;51.624;5.886;2023-08-07T06:08:01;0.45;;;0.30;;
62709;SDS011;48770;51.624;5.886;2023-08-07T06:10:27;0.90;;;0.30;;
62709;SDS011;48770;51.624;5.886;2023-08-07T06:12:52;0.63;;;0.22;;
62709;SDS011;48770;51.624;5.886;2023-08-07T06:15:17;0.52;;;0.30;;
62709;SDS011;48770;51.624;5.886;2023-08-07T06:17:43;0.32;;;0.17;;
62709;SDS011;48770;51.624;5.886;2023-08-07T06:20:08;0.63;;;0.22;;
62709;SDS011;48770;51.624;5.886;2023-08-07T06:22:35;0.40;;;0.30;;
62709;SDS011;48770;51.624;5.886;2023-08-07T06:25:00;0.52;;;0.20;;
62709;SDS011;48770;51.624;5.886;2023-08-07T06:27:26;0.20;;;0.10;;
62709;SDS011;48770;51.624;5.886;2023-08-07T06:29:51;0.63;;;0.20;;
62709;SDS011;48770;51.624;5.886;2023-08-07T06:32:17;0.35;;;0.25;;
62709;SDS011;48770;51.624;5.886;2023-08-07T06:34:43;0.93;;;0.22;;
62709;SDS011;48770;51.624;5.886;2023-08-07T06:37:08;0.82;;;0.50;;
62709;SDS011;48770;51.624;5.886;2023-08-07T06:39:34;0.82;;;0.30;;
62709;SDS011;48770;51.624;5.886;2023-08-07T06:41:59;0.32;;;0.20;;
62709;SDS011;48770;51.624;5.886;2023-08-07T06:44:25;0.73;;;0.20;;
62709;SDS011;48770;51.624;5.886;2023-08-07T06:46:51;1.58;;;0.28;;
62709;SDS011;48770;51.624;5.886;2023-08-07T06:49:17;0.40;;;0.32;;
62709;SDS011;48770;51.624;5.886;2023-08-07T06:51:42;1.25;;;0.52;;
62709;SDS011;48770;51.624;5.886;2023-08-07T06:54:07;0.52;;;0.20;;
62709;SDS011;48770;51.624;5.886;2023-08-07T06:56:33;0.55;;;0.20;;
62709;SDS011;48770;51.624;5.886;2023-08-07T06:58:58;0.55;;;0.30;;
62709;SDS011;48770;51.624;5.886;2023-08-07T07:01:23;0.30;;;0.25;;
62709;SDS011;48770;51.624;5.886;2023-08-07T07:03:49;0.68;;;0.20;;
62709;SDS011;48770;51.624;5.886;2023-08-07T07:06:17;0.30;;;0.20;;
62709;SDS011;48770;51.624;5.886;2023-08-07T07:08:43;0.90;;;0.43;;
62709;SDS011;48770;51.624;5.886;2023-08-07T07:11:08;1.25;;;0.30;;
62709;SDS011;48770;51.624;5.886;2023-08-07T07:13:33;0.47;;;0.20;;
62709;SDS011;48770;51.624;5.886;2023-08-07T07:15:59;0.45;;;0.30;;
62709;SDS011;48770;51.624;5.886;2023-08-07T07:18:24;1.00;;;0.30;;
62709;SDS011;48770;51.624;5.886;2023-08-07T07:20:59;0.32;;;0.20;;
62709;SDS011;48770;51.624;5.886;2023-08-07T07:23:25;0.40;;;0.20;;
62709;SDS011;48770;51.624;5.886;2023-08-07T07:25:50;0.47;;;0.30;;
62709;SDS011;48770;51.624;5.886;2023-08-07T07:28:16;0.50;;;0.23;;
62709;SDS011;48770;51.624;5.886;2023-08-07T07:30:41;0.90;;;0.20;;
62709;SDS011;48770;51.624;5.886;2023-08-07T07:33:06;0.20;;;0.10;;
62709;SDS011;48770;51.624;5.886;2023-08-07T07:35:32;0.30;;;0.20;;
62709;SDS011;48770;51.624;5.886;2023-08-07T07:37:58;0.43;;;0.38;;
62709;SDS011;48770;51.624;5.886;2023-08-07T07:40:23;0.38;;;0.22;;
62709;SDS011;48770;51.624;5.886;2023-08-07T07:42:48;0.40;;;0.33;;
62709;SDS011;48770;51.624;5.886;2023-08-07T07:45:13;0.85;;;0.35;;
62709;SDS011;48770;51.624;5.886;2023-08-07T07:47:39;0.60;;;0.10;;
62709;SDS011;48770;51.624;5.886;2023-08-07T07:50:07;0.93;;;0.25;;
62709;SDS011;48770;51.624;5.886;2023-08-07T07:52:33;0.38;;;0.10;;
62709;SDS011;48770;51.624;5.886;2023-08-07T07:54:59;0.30;;;0.20;;
62709;SDS011;48770;51.624;5.886;2023-08-07T07:57:24;0.73;;;0.30;;
62709;SDS011;48770;51.624;5.886;2023-08-07T07:59:49;0.20;;;0.20;;
62709;SDS011;48770;51.624;5.886;2023-08-07T08:02:15;0.50;;;0.30;;
62709;SDS011;48770;51.624;5.886;2023-08-07T08:04:42;0.25;;;0.20;;
62709;SDS011;48770;51.624;5.886;2023-08-07T08:07:08;0.50;;;0.10;;
62709;SDS011;48770;51.624;5.886;2023-08-07T08:09:34;0.85;;;0.20;;
62709;SDS011;48770;51.624;5.886;2023-08-07T08:11:59;1.13;;;0.40;;
62709;SDS011;48770;51.624;5.886;2023-08-07T08:14:24;0.55;;;0.28;;
62709;SDS011;48770;51.624;5.886;2023-08-07T08:16:50;0.57;;;0.30;;
62709;SDS011;48770;51.624;5.886;2023-08-07T08:19:15;0.47;;;0.20;;
62709;SDS011;48770;51.624;5.886;2023-08-07T08:21:41;0.52;;;0.30;;
62709;SDS011;48770;51.624;5.886;2023-08-07T08:24:07;0.30;;;0.20;;
62709;SDS011;48770;51.624;5.886;2023-08-07T08:26:32;0.60;;;0.32;;
62709;SDS011;48770;51.624;5.886;2023-08-07T08:28:57;0.65;;;0.20;;
62709;SDS011;48770;51.624;5.886;2023-08-07T08:31:23;0.50;;;0.17;;
62709;SDS011;48770;51.624;5.886;2023-08-07T08:33:49;0.63;;;0.20;;
62709;SDS011;48770;51.624;5.886;2023-08-07T08:36:14;0.52;;;0.30;;
62709;SDS011;48770;51.624;5.886;2023-08-07T08:38:40;0.30;;;0.20;;
62709;SDS011;48770;51.624;5.886;2023-08-07T08:41:05;0.40;;;0.30;;
62709;SDS011;48770;51.624;5.886;2023-08-07T08:43:34;0.70;;;0.20;;
62709;SDS011;48770;51.624;5.886;2023-08-07T08:46:04;0.25;;;0.17;;
62709;SDS011;48770;51.624;5.886;2023-08-07T08:48:30;0.88;;;0.30;;
62709;SDS011;48770;51.624;5.886;2023-08-07T08:50:59;0.60;;;0.30;;
62709;SDS011;48770;51.624;5.886;2023-08-07T08:53:26;0.55;;;0.28;;
62709;SDS011;48770;51.624;5.886;2023-08-07T08:55:52;0.73;;;0.32;;
62709;SDS011;48770;51.624;5.886;2023-08-07T08:58:18;0.95;;;0.40;;
62709;SDS011;48770;51.624;5.886;2023-08-07T09:00:45;0.63;;;0.45;;
62709;SDS011;48770;51.624;5.886;2023-08-07T09:03:11;0.43;;;0.20;;
62709;SDS011;48770;51.624;5.886;2023-08-07T09:05:36;0.40;;;0.20;;
62709;SDS011;48770;51.624;5.886;2023-08-07T09:08:02;0.68;;;0.38;;
62709;SDS011;48770;51.624;5.886;2023-08-07T09:10:28;0.82;;;0.40;;
62709;SDS011;48770;51.624;5.886;2023-08-07T09:13:00;0.40;;;0.28;;
62709;SDS011;48770;51.624;5.886;2023-08-07T09:15:30;0.88;;;0.20;;
62709;SDS011;48770;51.624;5.886;2023-08-07T09:17:57;0.52;;;0.40;;
62709;SDS011;48770;51.624;5.886;2023-08-07T09:20:27;1.45;;;0.40;;
62709;SDS011;48770;51.624;5.886;2023-08-07T09:22:53;0.70;;;0.35;;
62709;SDS011;48770;51.624;5.886;2023-08-07T09:25:31;0.32;;;0.25;;
62709;SDS011;48770;51.624;5.886;2023-08-07T09:27:58;0.90;;;0.30;;
62709;SDS011;48770;51.624;5.886;2023-08-07T09:30:29;0.57;;;0.22;;
62709;SDS011;48770;51.624;5.886;2023-08-07T09:32:58;0.85;;;0.30;;
62709;SDS011;48770;51.624;5.886;2023-08-07T09:35:24;1.10;;;0.30;;
62709;SDS011;48770;51.624;5.886;2023-08-07T09:37:50;0.30;;;0.10;;
62709;SDS011;48770;51.624;5.886;2023-08-07T09:40:15;2.33;;;0.30;;
62709;SDS011;48770;51.624;5.886;2023-08-07T09:42:41;1.08;;;0.30;;
62709;SDS011;48770;51.624;5.886;2023-08-07T09:45:19;0.80;;;0.30;;
62709;SDS011;48770;51.624;5.886;2023-08-07T09:47:46;0.95;;;0.45;;
62709;SDS011;48770;51.624;5.886;2023-08-07T09:50:15;0.95;;;0.30;;
62709;SDS011;48770;51.624;5.886;2023-08-07T09:52:48;0.68;;;0.30;;
62709;SDS011;48770;51.624;5.886;2023-08-07T09:55:14;0.70;;;0.40;;
62709;SDS011;48770;51.624;5.886;2023-08-07T09:57:41;0.82;;;0.45;;
62709;SDS011;48770;51.624;5.886;2023-08-07T10:00:08;1.33;;;0.45;;
62709;SDS011;48770;51.624;5.886;2023-08-07T10:02:37;0.47;;;0.30;;
62709;SDS011;48770;51.624;5.886;2023-08-07T10:05:04;0.70;;;0.40;;
62709;SDS011;48770;51.624;5.886;2023-08-07T10:07:30;0.22;;;0.20;;
62709;SDS011;48770;51.624;5.886;2023-08-07T10:09:56;0.52;;;0.20;;
62709;SDS011;48770;51.624;5.886;2023-08-07T10:12:24;0.80;;;0.30;;
62709;SDS011;48770;51.624;5.886;2023-08-07T10:14:51;0.70;;;0.30;;
62709;SDS011;48770;51.624;5.886;2023-08-07T10:17:18;0.50;;;0.30;;
62709;SDS011;48770;51.624;5.886;2023-08-07T10:19:44;0.68;;;0.30;;
62709;SDS011;48770;51.624;5.886;2023-08-07T10:22:09;0.70;;;0.27;;
62709;SDS011;48770;51.624;5.886;2023-08-07T10:24:35;0.57;;;0.20;;
62709;SDS011;48770;51.624;5.886;2023-08-07T10:27:05;0.65;;;0.30;;
62709;SDS011;48770;51.624;5.886;2023-08-07T10:29:32;0.45;;;0.20;;
62709;SDS011;48770;51.624;5.886;2023-08-07T10:31:59;0.80;;;0.40;;
62709;SDS011;48770;51.624;5.886;2023-08-07T10:34:32;1.08;;;0.50;;
62709;SDS011;48770;51.624;5.886;2023-08-07T10:36:58;0.52;;;0.20;;
62709;SDS011;48770;51.624;5.886;2023-08-07T10:39:23;0.63;;;0.38;;
62709;SDS011;48770;51.624;5.886;2023-08-07T10:41:52;0.70;;;0.30;;
62709;SDS011;48770;51.624;5.886;2023-08-07T10:46:51;0.30;;;0.20;;
62709;SDS011;48770;51.624;5.886;2023-08-07T10:49:36;1.17;;;0.50;;
62709;SDS011;48770;51.624;5.886;2023-08-07T10:54:37;1.35;;;0.30;;
62709;SDS011;48770;51.624;5.886;2023-08-07T10:57:09;0.82;;;0.38;;
62709;SDS011;48770;51.624;5.886;2023-08-07T10:59:37;0.30;;;0.20;;
62709;SDS011;48770;51.624;5.886;2023-08-07T11:02:03;1.08;;;0.30;;
62709;SDS011;48770;51.624;5.886;2023-08-07T11:07:02;0.55;;;0.20;;
62709;SDS011;48770;51.624;5.886;2023-08-07T11:09:27;0.68;;;0.32;;
62709;SDS011;48770;51.624;5.886;2023-08-07T11:11:52;0.50;;;0.30;;
62709;SDS011;48770;51.624;5.886;2023-08-07T11:14:18;0.63;;;0.43;;
62709;SDS011;48770;51.624;5.886;2023-08-07T11:16:45;0.40;;;0.20;;
62709;SDS011;48770;51.624;5.886;2023-08-07T11:19:16;0.40;;;0.30;;
62709;SDS011;48770;51.624;5.886;2023-08-07T11:21:42;0.63;;;0.20;;
62709;SDS011;48770;51.624;5.886;2023-08-07T11:24:08;0.50;;;0.35;;
62709;SDS011;48770;51.624;5.886;2023-08-07T11:26:37;0.80;;;0.20;;
62709;SDS011;48770;51.624;5.886;2023-08-07T11:29:02;0.90;;;0.20;;
62709;SDS011;48770;51.624;5.886;2023-08-07T11:31:29;0.30;;;0.20;;
62709;SDS011;48770;51.624;5.886;2023-08-07T11:33:55;0.95;;;0.35;;
62709;SDS011;48770;51.624;5.886;2023-08-07T11:36:22;0.43;;;0.28;;
62709;SDS011;48770;51.624;5.886;2023-08-07T11:38:49;0.52;;;0.30;;
62709;SDS011;48770;51.624;5.886;2023-08-07T11:41:16;0.60;;;0.28;;
62709;SDS011;48770;51.624;5.886;2023-08-07T11:43:42;1.05;;;0.50;;
62709;SDS011;48770;51.624;5.886;2023-08-07T11:46:09;0.85;;;0.40;;
62709;SDS011;48770;51.624;5.886;2023-08-07T11:48:39;1.65;;;0.57;;
62709;SDS011;48770;51.624;5.886;2023-08-07T11:51:06;0.60;;;0.30;;
62709;SDS011;48770;51.624;5.886;2023-08-07T11:53:33;0.60;;;0.20;;
62709;SDS011;48770;51.624;5.886;2023-08-07T11:56:01;1.35;;;0.32;;
62709;SDS011;48770;51.624;5.886;2023-08-07T11:58:33;0.20;;;0.10;;
62709;SDS011;48770;51.624;5.886;2023-08-07T12:01:02;0.45;;;0.20;;
62709;SDS011;48770;51.624;5.886;2023-08-07T12:03:30;1.75;;;0.30;;
62709;SDS011;48770;51.624;5.886;2023-08-07T12:05:57;0.30;;;0.20;;
62709;SDS011;48770;51.624;5.886;2023-08-07T12:08:24;0.52;;;0.30;;
62709;SDS011;48770;51.624;5.886;2023-08-07T12:10:50;1.05;;;0.50;;
62709;SDS011;48770;51.624;5.886;2023-08-07T12:13:20;0.95;;;0.40;;
62709;SDS011;48770;51.624;5.886;2023-08-07T12:15:51;5.05;;;0.82;;
62709;SDS011;48770;51.624;5.886;2023-08-07T12:18:18;2.17;;;0.90;;
62709;SDS011;48770;51.624;5.886;2023-08-07T12:20:44;5.03;;;1.30;;
62709;SDS011;48770;51.624;5.886;2023-08-07T12:23:13;5.32;;;1.00;;
62709;SDS011;48770;51.624;5.886;2023-08-07T12:25:41;2.50;;;0.95;;
62709;SDS011;48770;51.624;5.886;2023-08-07T12:28:06;2.58;;;0.93;;
62709;SDS011;48770;51.624;5.886;2023-08-07T12:30:34;3.00;;;1.23;;
62709;SDS011;48770;51.624;5.886;2023-08-07T12:33:00;6.72;;;1.00;;
62709;SDS011;48770;51.624;5.886;2023-08-07T12:35:25;4.78;;;1.13;;
62709;SDS011;48770;51.624;5.886;2023-08-07T12:37:50;5.20;;;1.10;;
62709;SDS011;48770;51.624;5.886;2023-08-07T12:40:15;5.03;;;0.82;;
62709;SDS011;48770;51.624;5.886;2023-08-07T12:42:45;3.90;;;1.00;;
62709;SDS011;48770;51.624;5.886;2023-08-07T12:45:11;10.23;;;1.10;;
62709;SDS011;48770;51.624;5.886;2023-08-07T12:47:36;4.10;;;1.00;;
62709;SDS011;48770;51.624;5.886;2023-08-07T12:50:02;4.55;;;1.08;;
62709;SDS011;48770;51.624;5.886;2023-08-07T12:52:28;5.15;;;1.40;;
62709;SDS011;48770;51.624;5.886;2023-08-07T12:54:53;4.97;;;1.30;;
62709;SDS011;48770;51.624;5.886;2023-08-07T12:57:19;4.43;;;1.33;;
62709;SDS011;48770;51.624;5.886;2023-08-07T12:59:44;2.92;;;0.90;;
62709;SDS011;48770;51.624;5.886;2023-08-07T13:02:09;3.78;;;1.15;;
62709;SDS011;48770;51.624;5.886;2023-08-07T13:04:34;3.20;;;1.00;;
62709;SDS011;48770;51.624;5.886;2023-08-07T13:07:00;5.75;;;1.15;;
62709;SDS011;48770;51.624;5.886;2023-08-07T13:09:25;4.55;;;1.00;;
62709;SDS011;48770;51.624;5.886;2023-08-07T13:11:51;4.78;;;1.10;;
62709;SDS011;48770;51.624;5.886;2023-08-07T13:14:16;14.00;;;1.33;;
62709;SDS011;48770;51.624;5.886;2023-08-07T13:16:41;3.67;;;1.00;;
62709;SDS011;48770;51.624;5.886;2023-08-07T13:19:07;4.32;;;1.42;;
62709;SDS011;48770;51.624;5.886;2023-08-07T13:21:32;3.30;;;1.10;;
62709;SDS011;48770;51.624;5.886;2023-08-07T13:23:57;2.92;;;1.00;;
62709;SDS011;48770;51.624;5.886;2023-08-07T13:26:23;2.50;;;0.90;;
62709;SDS011;48770;51.624;5.886;2023-08-07T13:28:48;4.80;;;0.93;;
62709;SDS011;48770;51.624;5.886;2023-08-07T13:31:13;2.30;;;0.80;;
62709;SDS011;48770;51.624;5.886;2023-08-07T13:33:39;3.15;;;0.80;;
62709;SDS011;48770;51.624;5.886;2023-08-07T13:36:04;2.13;;;0.95;;
62709;SDS011;48770;51.624;5.886;2023-08-07T13:38:29;12.90;;;1.10;;
62709;SDS011;48770;51.624;5.886;2023-08-07T13:40:55;7.70;;;1.40;;
62709;SDS011;48770;51.624;5.886;2023-08-07T13:43:20;2.72;;;1.30;;
62709;SDS011;48770;51.624;5.886;2023-08-07T13:45:45;5.53;;;1.10;;
62709;SDS011;48770;51.624;5.886;2023-08-07T13:48:11;6.82;;;1.08;;
62709;SDS011;48770;51.624;5.886;2023-08-07T13:50:36;4.70;;;1.10;;
62709;SDS011;48770;51.624;5.886;2023-08-07T13:53:03;7.13;;;1.20;;
62709;SDS011;48770;51.624;5.886;2023-08-07T13:55:28;3.97;;;0.93;;
62709;SDS011;48770;51.624;5.886;2023-08-07T13:57:54;1.88;;;0.80;;
62709;SDS011;48770;51.624;5.886;2023-08-07T14:00:19;1.45;;;1.10;;
62709;SDS011;48770;51.624;5.886;2023-08-07T14:02:45;1.35;;;1.02;;
62709;SDS011;48770;51.624;5.886;2023-08-07T14:05:10;3.55;;;1.10;;
62709;SDS011;48770;51.624;5.886;2023-08-07T14:07:36;3.60;;;1.05;;
62709;SDS011;48770;51.624;5.886;2023-08-07T14:10:01;3.83;;;1.15;;
62709;SDS011;48770;51.624;5.886;2023-08-07T14:12:26;4.03;;;1.10;;
62709;SDS011;48770;51.624;5.886;2023-08-07T14:14:52;2.30;;;1.08;;
62709;SDS011;48770;51.624;5.886;2023-08-07T14:17:18;6.28;;;0.95;;
62709;SDS011;48770;51.624;5.886;2023-08-07T14:19:43;3.08;;;1.13;;
62709;SDS011;48770;51.624;5.886;2023-08-07T14:22:09;4.55;;;1.50;;
62709;SDS011;48770;51.624;5.886;2023-08-07T14:24:35;3.65;;;1.13;;
62709;SDS011;48770;51.624;5.886;2023-08-07T14:27:00;3.42;;;1.23;;
62709;SDS011;48770;51.624;5.886;2023-08-07T14:29:26;2.50;;;1.23;;
62709;SDS011;48770;51.624;5.886;2023-08-07T14:31:51;7.30;;;1.27;;
62709;SDS011;48770;51.624;5.886;2023-08-07T14:34:16;5.50;;;1.30;;
62709;SDS011;48770;51.624;5.886;2023-08-07T14:36:42;3.75;;;1.52;;
62709;SDS011;48770;51.624;5.886;2023-08-07T14:39:07;6.32;;;1.65;;
62709;SDS011;48770;51.624;5.886;2023-08-07T14:41:32;4.20;;;1.40;;
62709;SDS011;48770;51.624;5.886;2023-08-07T14:43:57;5.53;;;1.50;;
62709;SDS011;48770;51.624;5.886;2023-08-07T14:46:23;5.00;;;1.50;;
62709;SDS011;48770;51.624;5.886;2023-08-07T14:48:48;4.97;;;1.60;;
62709;SDS011;48770;51.624;5.886;2023-08-07T14:51:14;3.70;;;1.65;;
62709;SDS011;48770;51.624;5.886;2023-08-07T14:53:39;4.28;;;1.50;;
62709;SDS011;48770;51.624;5.886;2023-08-07T14:56:05;5.32;;;1.42;;